Time;durP1;ratioP1;P1;durP2;ratioP2;P2;SDS_P1;SDS_P2;PMS_P1;PMS_P2;Temp;Humidity;BMP_temperature;BMP_pressure;BME280_temperature;BME280_humidity;BME280_pressure;Samples;Min_cycle;Max_cycle;Signal;HPM_P1;HPM_P2
2022/06/02 00:02:19;;;;;;;0.00;0.00;;;10.90;81.60;;;;;;5012963;28;20042;-68
2022/06/02 00:05:00;;;;;;;0.00;0.00;;;10.90;81.60;;;;;;5022042;28;20049;-68
2022/06/02 00:07:57;;;;;;;0.00;0.00;;;10.80;81.50;;;;;;5026670;28;20402;-68
2022/06/02 00:10:52;;;;;;;0.00;0.00;;;10.90;81.90;;;;;;5013651;28;20104;-68
2022/06/02 00:13:26;;;;;;;0.03;0.03;;;10.80;82.00;;;;;;5029903;28;20071;-68
2022/06/02 00:16:00;;;;;;;0.00;0.00;;;10.90;81.90;;;;;;5026513;28;20735;-68
2022/06/02 00:18:35;;;;;;;0.10;0.10;;;10.90;81.90;;;;;;5041956;28;20966;-68
2022/06/02 00:21:27;;;;;;;0.00;0.00;;;10.80;81.70;;;;;;5015956;28;20075;-67
2022/06/02 00:24:09;;;;;;;0.00;0.00;;;10.80;81.60;;;;;;5014792;28;20046;-67
2022/06/02 00:27:01;;;;;;;0.00;0.00;;;10.80;81.60;;;;;;5014111;28;20069;-68
2022/06/02 00:29:36;;;;;;;0.00;0.00;;;10.80;82.00;;;;;;5021581;28;20084;-68
2022/06/02 00:32:17;;;;;;;0.10;0.10;;;10.70;81.90;;;;;;5019539;28;20049;-68
2022/06/02 00:35:33;;;;;;;0.00;0.00;;;10.70;82.00;;;;;;5016596;28;20041;-68
2022/06/02 00:38:04;;;;;;;0.05;0.05;;;10.70;82.00;;;;;;5027932;28;20054;-68
2022/06/02 00:40:32;;;;;;;0.00;0.00;;;10.70;81.90;;;;;;5025086;28;20121;-68
2022/06/02 00:43:18;;;;;;;0.00;0.00;;;10.60;82.00;;;;;;5012841;28;20517;-68
2022/06/02 00:45:45;;;;;;;0.00;0.00;;;10.60;82.00;;;;;;5028340;28;20913;-68
2022/06/02 00:48:11;;;;;;;0.00;0.00;;;10.60;81.90;;;;;;5020457;28;20049;-68
2022/06/02 00:51:00;;;;;;;0.05;0.05;;;10.60;81.90;;;;;;5027983;28;20045;-68
2022/06/02 00:59:40;;;;;;;0.10;0.10;;;10.60;81.90;;;;;;5026132;28;20057;-68
2022/06/02 01:02:05;;;;;;;0.00;0.00;;;10.50;82.20;;;;;;5022864;28;20060;-67
2022/06/02 01:04:37;;;;;;;0.00;0.00;;;10.50;82.20;;;;;;5015826;28;20462;-68
2022/06/02 01:07:15;;;;;;;0.00;0.00;;;10.60;82.30;;;;;;5016096;28;20128;-68
2022/06/02 01:10:11;;;;;;;0.00;0.00;;;10.50;82.00;;;;;;5018157;28;20570;-69
2022/06/02 01:12:42;;;;;;;0.00;0.00;;;10.50;81.80;;;;;;5015513;28;20034;-68
2022/06/02 01:15:29;;;;;;;0.00;0.00;;;10.40;81.70;;;;;;5028109;28;20498;-68
2022/06/02 01:18:27;;;;;;;0.00;0.00;;;10.40;81.70;;;;;;5015936;28;20053;-67
2022/06/02 01:21:40;;;;;;;0.00;0.00;;;10.40;81.70;;;;;;5028137;28;20057;-67
2022/06/02 01:24:29;;;;;;;;;;;10.40;81.70;;;;;;5012311;28;20057;-68
2022/06/02 01:27:05;;;;;;;0.00;0.00;;;10.30;81.50;;;;;;5025104;28;20012;-68
2022/06/02 01:29:44;;;;;;;0.00;0.00;;;10.30;81.50;;;;;;5021722;28;20050;-68
2022/06/02 01:32:15;;;;;;;0.00;0.00;;;10.30;81.60;;;;;;5018623;28;20049;-68
2022/06/02 01:34:43;;;;;;;0.00;0.00;;;10.30;81.90;;;;;;5024056;28;20052;-68
2022/06/02 01:37:24;;;;;;;0.00;0.00;;;10.30;82.00;;;;;;5019632;28;20502;-67
2022/06/02 01:40:08;;;;;;;0.00;0.00;;;10.20;82.00;;;;;;5042687;28;20053;-68
2022/06/02 01:42:56;;;;;;;0.00;0.00;;;10.20;82.20;;;;;;5028312;28;20053;-68
2022/06/02 01:45:31;;;;;;;0.00;0.00;;;10.20;82.10;;;;;;5018525;28;20491;-68
2022/06/02 01:48:29;;;;;;;0.00;0.00;;;10.20;81.90;;;;;;5017036;28;20076;-67
2022/06/02 01:51:24;;;;;;;0.00;0.00;;;10.20;81.80;;;;;;5024957;28;20056;-68
2022/06/02 01:53:59;;;;;;;0.00;0.00;;;10.20;82.00;;;;;;5022778;28;20119;-67
2022/06/02 01:56:52;;;;;;;0.00;0.00;;;10.10;81.90;;;;;;5018732;28;20069;-68
2022/06/02 01:59:39;;;;;;;0.00;0.00;;;10.20;81.90;;;;;;5012056;28;20511;-68
2022/06/02 02:02:20;;;;;;;0.00;0.00;;;10.10;82.00;;;;;;5010491;28;20152;-67
2022/06/02 02:05:07;;;;;;;0.00;0.00;;;10.10;82.10;;;;;;5012414;28;20049;-67
2022/06/02 02:08:05;;;;;;;0.00;0.00;;;10.10;82.00;;;;;;5028810;28;20076;-68
2022/06/02 02:10:49;;;;;;;0.00;0.00;;;10.10;82.60;;;;;;5028384;28;20513;-68
2022/06/02 02:13:36;;;;;;;0.10;0.10;;;10.00;82.40;;;;;;5022552;28;20553;-67
2022/06/02 02:16:26;;;;;;;0.00;0.00;;;10.00;82.40;;;;;;5025452;28;20091;-67
2022/06/02 02:19:00;;;;;;;0.00;0.00;;;10.00;82.30;;;;;;5020174;28;20476;-68
2022/06/02 02:21:37;;;;;;;0.00;0.00;;;10.10;82.40;;;;;;5016232;28;20037;-69
2022/06/02 02:24:36;;;;;;;0.10;0.10;;;10.00;82.30;;;;;;5028703;28;20487;-68
2022/06/02 02:30:29;;;;;;;0.00;0.00;;;10.00;82.30;;;;;;5028110;28;20045;-68
2022/06/02 02:33:28;;;;;;;0.00;0.00;;;10.00;82.30;;;;;;5024608;28;20068;-67
2022/06/02 02:36:02;;;;;;;0.00;0.00;;;10.00;82.50;;;;;;5024056;28;20132;-67
2022/06/02 02:39:03;;;;;;;0.00;0.00;;;10.00;82.70;;;;;;5016620;28;20076;-68
2022/06/02 02:41:46;;;;;;;0.00;0.00;;;9.90;82.70;;;;;;5046576;28;20044;-67
2022/06/02 02:44:22;;;;;;;0.00;0.00;;;9.90;82.70;;;;;;5026915;28;20049;-69
2022/06/02 02:47:27;;;;;;;0.00;0.00;;;10.00;82.60;;;;;;5020873;28;20046;-67
2022/06/02 02:50:21;;;;;;;0.00;0.00;;;10.00;82.60;;;;;;5018336;28;20818;-68
2022/06/02 02:53:04;;;;;;;0.00;0.00;;;10.00;82.60;;;;;;5023310;28;20516;-68
2022/06/02 02:55:43;;;;;;;0.00;0.00;;;10.00;82.60;;;;;;5024828;28;20045;-68
2022/06/02 02:58:40;;;;;;;0.00;0.00;;;9.90;82.80;;;;;;5029612;28;20121;-67
2022/06/02 03:01:35;;;;;;;0.00;0.00;;;9.90;82.60;;;;;;5011949;28;20061;-67
2022/06/02 03:04:08;;;;;;;0.00;0.00;;;9.90;82.70;;;;;;5013311;28;20046;-68
2022/06/02 03:06:38;;;;;;;0.00;0.00;;;9.90;82.70;;;;;;5019400;28;20427;-67
2022/06/02 03:09:20;;;;;;;0.00;0.00;;;10.00;82.60;;;;;;5025836;28;20056;-67
2022/06/02 03:12:08;;;;;;;0.00;0.00;;;9.90;82.70;;;;;;5031297;28;20065;-67
2022/06/02 03:15:01;;;;;;;0.00;0.00;;;9.90;82.70;;;;;;5025794;28;20050;-68
2022/06/02 03:17:45;;;;;;;0.00;0.00;;;9.90;82.50;;;;;;5020619;28;20056;-68
2022/06/02 03:20:42;;;;;;;0.00;0.00;;;9.90;82.70;;;;;;5027405;28;20387;-68
2022/06/02 03:23:45;;;;;;;0.00;0.00;;;9.90;82.60;;;;;;5027199;28;20045;-68
2022/06/02 03:26:22;;;;;;;0.00;0.00;;;9.90;82.60;;;;;;5019875;28;20392;-68
2022/06/02 03:29:12;;;;;;;0.00;0.00;;;9.80;82.60;;;;;;5023585;28;20102;-67
2022/06/02 03:32:03;;;;;;;0.00;0.00;;;9.80;82.60;;;;;;5027882;28;20128;-67
2022/06/02 03:34:35;;;;;;;0.00;0.00;;;9.80;82.60;;;;;;5030709;28;20108;-69
2022/06/02 03:37:27;;;;;;;;;;;9.90;82.60;;;;;;5024298;28;20121;-69
2022/06/02 03:40:31;;;;;;;0.00;0.00;;;9.90;82.50;;;;;;5019233;28;20400;-69
2022/06/02 03:43:06;;;;;;;0.00;0.00;;;9.90;82.70;;;;;;5026661;28;20046;-69
2022/06/02 03:45:42;;;;;;;0.00;0.00;;;9.80;82.70;;;;;;4994729;28;20061;-68
2022/06/02 03:48:38;;;;;;;0.00;0.00;;;9.90;82.80;;;;;;5022869;28;20056;-68
2022/06/02 03:51:31;;;;;;;0.00;0.00;;;9.90;82.70;;;;;;5028831;28;20038;-68
2022/06/02 03:54:14;;;;;;;0.00;0.00;;;9.90;82.70;;;;;;5021263;28;20042;-68
2022/06/02 03:56:55;;;;;;;0.00;0.00;;;9.90;82.70;;;;;;5025868;28;20042;-68
2022/06/02 03:59:29;;;;;;;0.00;0.00;;;9.90;82.70;;;;;;5026802;28;20044;-67
2022/06/02 04:02:02;;;;;;;0.00;0.00;;;9.90;82.50;;;;;;5016687;28;20498;-67
2022/06/02 04:04:36;;;;;;;0.00;0.00;;;9.90;82.40;;;;;;5025293;28;20037;-67
2022/06/02 04:07:14;;;;;;;0.00;0.00;;;10.00;82.40;;;;;;5015025;28;20041;-68
2022/06/02 04:10:13;;;;;;;0.05;0.05;;;10.00;82.30;;;;;;5028342;28;20115;-68
2022/06/02 04:15:46;;;;;;;0.00;0.00;;;10.00;82.50;;;;;;5022004;28;20053;-67
2022/06/02 04:18:26;;;;;;;0.00;0.00;;;10.00;82.70;;;;;;5025766;28;20552;-67
2022/06/02 04:21:00;;;;;;;0.00;0.00;;;10.10;82.60;;;;;;5020644;28;20048;-66
2022/06/02 04:23:41;;;;;;;0.00;0.00;;;10.10;82.50;;;;;;5023023;28;20050;-67
2022/06/02 04:26:42;;;;;;;0.00;0.00;;;10.10;82.70;;;;;;5026698;28;20049;-67
2022/06/02 04:29:20;;;;;;;0.00;0.00;;;10.10;82.60;;;;;;5018504;28;20125;-67
2022/06/02 04:32:00;;;;;;;0.00;0.00;;;10.10;82.70;;;;;;5023657;28;20111;-67
2022/06/02 04:34:34;;;;;;;0.10;0.10;;;10.10;82.60;;;;;;5012399;28;20052;-68
2022/06/02 04:37:06;;;;;;;0.00;0.00;;;10.10;82.80;;;;;;5028721;28;20889;-68
2022/06/02 04:39:52;;;;;;;0.00;0.00;;;10.10;82.80;;;;;;5023853;28;20054;-68
2022/06/02 04:42:45;;;;;;;0.00;0.00;;;10.20;82.90;;;;;;5012211;28;20499;-68
2022/06/02 04:45:17;;;;;;;0.00;0.00;;;10.20;83.10;;;;;;5027302;28;20037;-67
2022/06/02 04:47:51;;;;;;;;;;;10.30;83.00;;;;;;5029581;28;20445;-68
2022/06/02 04:50:41;;;;;;;0.00;0.00;;;10.30;83.20;;;;;;5017724;28;19929;-68
2022/06/02 04:53:29;;;;;;;0.10;0.10;;;10.30;83.10;;;;;;5021514;28;20420;-68
2022/06/02 04:56:25;;;;;;;0.00;0.00;;;10.40;83.20;;;;;;5022522;28;20046;-67
2022/06/02 04:59:25;;;;;;;0.00;0.00;;;10.50;83.40;;;;;;5020402;28;20441;-68
2022/06/02 05:02:08;;;;;;;0.00;0.00;;;10.60;83.40;;;;;;5038502;28;20486;-67
2022/06/02 05:04:41;;;;;;;0.00;0.00;;;10.60;83.40;;;;;;5027129;28;20074;-68
2022/06/02 05:07:41;;;;;;;0.00;0.00;;;10.60;83.70;;;;;;5025709;28;20050;-70
2022/06/02 05:10:07;;;;;;;0.00;0.00;;;10.70;83.70;;;;;;5026078;28;20139;-68
2022/06/02 05:12:44;;;;;;;0.00;0.00;;;10.80;83.50;;;;;;5023160;28;20081;-68
2022/06/02 05:15:42;;;;;;;0.08;0.08;;;10.80;83.50;;;;;;5024967;28;20064;-68
2022/06/02 05:18:22;;;;;;;0.00;0.00;;;10.90;83.70;;;;;;5024759;28;20041;-68
2022/06/02 05:21:03;;;;;;;0.17;0.17;;;10.90;83.80;;;;;;5026723;28;20779;-69
2022/06/02 05:24:00;;;;;;;0.00;0.00;;;10.90;83.80;;;;;;5028254;28;20049;-68
2022/06/02 05:26:46;;;;;;;0.00;0.00;;;11.00;83.90;;;;;;5027506;28;20505;-70
2022/06/02 05:29:24;;;;;;;0.00;0.00;;;11.10;83.80;;;;;;5021225;28;20038;-68
2022/06/02 05:32:09;;;;;;;0.10;0.10;;;11.10;83.60;;;;;;5024629;28;20130;-67
2022/06/02 05:35:09;;;;;;;0.20;0.20;;;11.20;83.40;;;;;;5026863;28;20510;-68
2022/06/02 05:37:45;;;;;;;0.00;0.00;;;11.30;83.30;;;;;;5027659;28;20047;-67
2022/06/02 05:40:17;;;;;;;0.00;0.00;;;11.30;83.50;;;;;;5027124;28;20050;-67
2022/06/02 05:43:04;;;;;;;0.00;0.00;;;11.40;83.70;;;;;;5025785;28;20056;-67
2022/06/02 05:45:36;;;;;;;0.00;0.00;;;11.50;83.50;;;;;;5026479;28;20107;-66
2022/06/02 05:48:05;;;;;;;0.00;0.00;;;11.60;83.20;;;;;;5027494;28;20045;-65
2022/06/02 05:50:49;;;;;;;0.00;0.00;;;11.60;83.10;;;;;;5027443;28;20116;-67
2022/06/02 05:53:33;;;;;;;0.00;0.00;;;11.70;83.50;;;;;;5026768;28;20132;-67
2022/06/02 05:56:05;;;;;;;0.00;0.00;;;11.70;82.80;;;;;;5027395;28;20052;-67
2022/06/02 05:58:44;;;;;;;0.00;0.00;;;11.70;82.90;;;;;;5026202;28;20490;-68
2022/06/02 06:01:48;;;;;;;0.00;0.00;;;11.80;82.80;;;;;;5027002;28;20042;-68
2022/06/02 06:04:32;;;;;;;0.00;0.00;;;11.90;83.00;;;;;;5025481;28;20043;-68
2022/06/02 06:07:02;;;;;;;0.13;0.13;;;11.90;83.00;;;;;;5026296;28;20046;-68
2022/06/02 06:09:52;;;;;;;0.00;0.00;;;12.00;82.80;;;;;;5026419;28;20053;-68
2022/06/02 06:12:45;;;;;;;0.10;0.10;;;12.10;82.50;;;;;;5025546;28;20045;-67
2022/06/02 06:15:38;;;;;;;0.00;0.00;;;12.10;82.20;;;;;;5040187;28;20049;-68
2022/06/02 06:18:13;;;;;;;0.00;0.00;;;12.20;81.30;;;;;;5026023;28;20697;-68
2022/06/02 06:20:57;;;;;;;0.00;0.00;;;12.20;81.70;;;;;;5022216;28;20128;-67
2022/06/02 06:23:44;;;;;;;0.10;0.10;;;12.20;81.00;;;;;;5027131;28;20146;-68
2022/06/02 06:26:28;;;;;;;0.00;0.00;;;12.30;79.90;;;;;;5026357;28;20057;-68
2022/06/02 06:29:11;;;;;;;0.00;0.00;;;12.40;80.10;;;;;;5026909;28;20049;-68
2022/06/02 06:31:58;;;;;;;0.00;0.00;;;12.50;80.20;;;;;;5025968;28;20088;-68
2022/06/02 06:34:33;;;;;;;0.00;0.00;;;12.60;79.60;;;;;;5027206;28;20042;-69
2022/06/02 06:37:19;;;;;;;0.00;0.00;;;12.70;77.70;;;;;;5022215;28;20115;-69
2022/06/02 06:39:59;;;;;;;0.00;0.00;;;12.70;76.60;;;;;;5007422;28;20553;-73
2022/06/02 06:42:46;;;;;;;0.00;0.00;;;12.80;76.60;;;;;;5018501;28;20050;-71
2022/06/02 06:45:33;;;;;;;0.00;0.00;;;12.80;75.70;;;;;;5019869;28;20132;-70
2022/06/02 06:48:14;;;;;;;0.00;0.00;;;12.90;76.50;;;;;;5024010;28;20050;-71
2022/06/02 06:51:01;;;;;;;0.10;0.10;;;12.90;75.50;;;;;;5024082;28;20050;-71
2022/06/02 06:53:48;;;;;;;0.00;0.00;;;12.80;75.20;;;;;;5023345;28;20052;-71
2022/06/02 06:56:29;;;;;;;0.00;0.00;;;12.90;74.90;;;;;;5033651;28;20041;-71
2022/06/02 06:59:08;;;;;;;0.00;0.00;;;12.90;75.10;;;;;;5029089;28;20033;-72
2022/06/02 07:01:56;;;;;;;0.00;0.00;;;13.00;74.80;;;;;;5030105;28;20046;-72
2022/06/02 07:04:44;;;;;;;0.00;0.00;;;13.00;74.10;;;;;;5026310;28;20041;-73
2022/06/02 07:07:15;;;;;;;0.63;0.63;;;13.10;73.90;;;;;;5022378;28;20056;-71
2022/06/02 07:10:03;;;;;;;0.00;0.00;;;13.20;74.20;;;;;;5024849;28;20057;-70
2022/06/02 07:12:52;;;;;;;0.00;0.00;;;13.20;74.00;;;;;;5025370;28;20840;-71
2022/06/02 07:15:28;;;;;;;0.10;0.10;;;13.20;73.30;;;;;;5012363;28;20499;-71
2022/06/02 07:18:12;;;;;;;0.00;0.00;;;13.30;73.40;;;;;;5038858;28;20520;-70
2022/06/02 07:20:48;;;;;;;0.00;0.00;;;13.30;72.80;;;;;;5026033;28;20132;-70
2022/06/02 07:23:24;;;;;;;0.00;0.00;;;13.40;72.70;;;;;;5029781;28;20050;-71
2022/06/02 07:26:08;;;;;;;0.00;0.00;;;13.50;71.80;;;;;;5036094;28;20041;-73
2022/06/02 07:29:05;;;;;;;0.00;0.00;;;13.50;70.30;;;;;;5024484;28;20034;-70
2022/06/02 07:32:16;;;;;;;0.00;0.00;;;13.50;71.50;;;;;;5029732;28;20047;-73
2022/06/02 07:35:16;;;;;;;0.00;0.00;;;13.50;70.00;;;;;;5025430;28;20050;-70
2022/06/02 07:38:06;;;;;;;0.00;0.00;;;13.60;71.20;;;;;;5025781;28;20046;-71
2022/06/02 07:41:05;;;;;;;0.00;0.00;;;13.60;70.50;;;;;;5029127;28;20049;-71
2022/06/02 07:44:01;;;;;;;0.08;0.08;;;13.60;71.60;;;;;;5036204;28;20725;-70
2022/06/02 07:46:40;;;;;;;0.00;0.00;;;13.80;71.00;;;;;;5019758;28;20044;-70
2022/06/02 07:49:34;;;;;;;0.10;0.10;;;13.80;71.30;;;;;;5029060;28;20513;-72
2022/06/02 07:52:06;;;;;;;0.00;0.00;;;13.80;71.10;;;;;;5020523;28;20056;-72
2022/06/02 07:54:53;;;;;;;0.00;0.00;;;13.80;71.20;;;;;;5028179;28;20084;-72
2022/06/02 07:57:34;;;;;;;0.00;0.00;;;13.90;71.70;;;;;;5029445;28;20417;-72
2022/06/02 08:00:17;;;;;;;0.00;0.00;;;14.00;71.70;;;;;;5026989;28;20041;-71
2022/06/02 08:03:10;;;;;;;0.00;0.00;;;14.10;70.20;;;;;;5026084;28;20041;-69
2022/06/02 08:06:09;;;;;;;0.65;0.65;;;14.10;69.40;;;;;;5034542;28;20107;-70
2022/06/02 08:09:01;;;;;;;0.00;0.00;;;14.10;69.70;;;;;;5024511;28;20075;-70
2022/06/02 08:11:45;;;;;;;;;;;14.20;70.40;;;;;;5037207;28;20054;-70
2022/06/02 08:14:32;;;;;;;0.45;0.45;;;14.30;71.50;;;;;;5024023;28;19921;-69
2022/06/02 08:17:21;;;;;;;0.00;0.00;;;14.30;69.90;;;;;;5027460;28;20045;-70
2022/06/02 08:20:18;;;;;;;0.00;0.00;;;14.10;68.40;;;;;;5027724;28;20041;-70
2022/06/02 08:22:48;;;;;;;0.00;0.00;;;14.10;69.30;;;;;;5029072;28;20132;-71
2022/06/02 08:25:22;;;;;;;0.00;0.00;;;14.20;69.90;;;;;;5001201;28;20053;-70
2022/06/02 08:28:05;;;;;;;0.00;0.00;;;14.30;70.10;;;;;;5028511;28;20048;-71
2022/06/02 08:30:56;;;;;;;0.00;0.00;;;14.30;69.80;;;;;;5017456;28;20052;-70
2022/06/02 08:33:39;;;;;;;0.00;0.00;;;14.30;69.20;;;;;;5015095;28;20044;-71
2022/06/02 08:36:13;;;;;;;0.00;0.00;;;14.20;69.90;;;;;;5027485;28;20596;-70
2022/06/02 08:38:41;;;;;;;0.00;0.00;;;14.20;70.40;;;;;;5018605;28;20045;-71
2022/06/02 08:41:28;;;;;;;0.00;0.00;;;14.20;70.20;;;;;;5026694;28;20065;-70
2022/06/02 08:44:11;;;;;;;0.00;0.00;;;14.30;70.80;;;;;;5019015;28;20049;-69
2022/06/02 08:46:49;;;;;;;0.00;0.00;;;14.30;70.60;;;;;;5028700;28;20042;-71
2022/06/02 08:49:36;;;;;;;0.10;0.10;;;14.30;70.80;;;;;;5018277;28;20452;-71
2022/06/02 08:52:31;;;;;;;0.03;0.03;;;14.20;70.50;;;;;;5028386;28;20088;-70
2022/06/02 08:55:26;;;;;;;0.00;0.00;;;14.20;69.80;;;;;;5019506;28;20053;-69
2022/06/02 08:58:16;;;;;;;0.00;0.00;;;14.10;69.40;;;;;;5018592;28;20056;-69
2022/06/02 09:01:05;;;;;;;0.00;0.00;;;14.30;70.10;;;;;;5023240;28;20914;-69
2022/06/02 09:04:08;;;;;;;0.00;0.00;;;14.50;70.80;;;;;;5044673;28;20041;-69
2022/06/02 09:07:05;;;;;;;0.30;0.30;;;14.70;68.90;;;;;;5026810;28;20061;-69
2022/06/02 09:09:39;;;;;;;0.00;0.00;;;15.00;69.90;;;;;;5013635;28;20507;-69
2022/06/02 09:12:25;;;;;;;0.00;0.00;;;14.80;68.10;;;;;;5028226;28;20042;-69
2022/06/02 09:15:28;;;;;;;0.00;0.00;;;14.70;68.10;;;;;;5026660;28;20041;-68
2022/06/02 09:18:18;;;;;;;0.00;0.00;;;14.70;68.70;;;;;;5011361;28;20045;-69
2022/06/02 09:21:08;;;;;;;0.10;0.10;;;14.70;69.20;;;;;;5024125;28;20052;-67
2022/06/02 09:23:58;;;;;;;0.00;0.00;;;14.80;69.30;;;;;;5027068;28;20053;-67
2022/06/02 09:26:40;;;;;;;0.00;0.00;;;14.90;69.20;;;;;;5024432;28;20713;-67
2022/06/02 09:29:24;;;;;;;0.00;0.00;;;14.90;69.10;;;;;;5027371;28;20063;-69
2022/06/02 09:32:31;;;;;;;0.00;0.00;;;14.90;68.90;;;;;;5027527;28;20053;-67
2022/06/02 09:35:22;;;;;;;0.10;0.10;;;14.90;68.90;;;;;;5027810;28;20045;-67
2022/06/02 09:38:27;;;;;;;0.00;0.00;;;14.90;68.50;;;;;;5020975;28;20108;-68
2022/06/02 09:41:30;;;;;;;0.05;0.05;;;15.00;69.70;;;;;;5024459;28;20054;-68
2022/06/02 09:44:04;;;;;;;0.00;0.00;;;15.10;69.20;;;;;;5026016;28;20049;-69
2022/06/02 09:47:02;;;;;;;1.10;1.00;;;15.30;69.50;;;;;;5026965;28;20168;-66
2022/06/02 09:50:19;;;;;;;0.32;0.22;;;15.20;67.70;;;;;;5024697;28;20041;-68
2022/06/02 09:53:11;;;;;;;0.00;0.00;;;15.20;68.20;;;;;;4991071;28;20265;-68
2022/06/02 09:55:56;;;;;;;0.00;0.00;;;15.30;68.70;;;;;;5026583;28;20088;-68
2022/06/02 09:58:33;;;;;;;0.00;0.00;;;15.40;67.90;;;;;;5027053;28;20053;-68
2022/06/02 10:01:22;;;;;;;0.00;0.00;;;15.50;68.20;;;;;;5026544;28;20033;-68
2022/06/02 10:04:01;;;;;;;0.00;0.00;;;15.60;68.00;;;;;;5028083;28;20706;-68
2022/06/02 10:06:58;;;;;;;0.00;0.00;;;15.80;67.30;;;;;;5024049;28;20132;-67
2022/06/02 10:09:45;;;;;;;0.00;0.00;;;15.70;66.10;;;;;;5023802;28;20413;-68
2022/06/02 10:15:41;;;;;;;0.03;0.03;;;15.60;66.90;;;;;;5021870;28;20053;-66
2022/06/02 10:18:06;;;;;;;0.00;0.00;;;15.70;67.20;;;;;;5027789;28;20546;-66
2022/06/02 10:21:09;;;;;;;0.00;0.00;;;15.80;66.90;;;;;;5015551;28;20041;-66
2022/06/02 10:24:10;;;;;;;0.00;0.00;;;15.90;67.70;;;;;;5022335;28;20033;-66
2022/06/02 10:27:11;;;;;;;0.00;0.00;;;16.00;67.30;;;;;;5027227;28;20095;-66
2022/06/02 10:30:24;;;;;;;0.00;0.00;;;15.90;67.00;;;;;;5031339;28;20045;-66
2022/06/02 10:33:25;;;;;;;0.10;0.10;;;16.00;66.50;;;;;;5018700;28;20053;-66
2022/06/02 10:36:09;;;;;;;0.20;0.20;;;16.00;66.00;;;;;;5009272;28;20733;-65
2022/06/02 10:38:53;;;;;;;0.00;0.00;;;16.00;66.30;;;;;;5028778;28;20050;-65
2022/06/02 10:41:25;;;;;;;0.00;0.00;;;16.10;66.80;;;;;;5031771;28;20140;-66
2022/06/02 10:43:58;;;;;;;0.00;0.00;;;16.10;67.10;;;;;;5015192;28;20084;-65
2022/06/02 10:46:51;;;;;;;0.00;0.00;;;16.00;66.00;;;;;;5023636;28;20099;-66
2022/06/02 10:49:33;;;;;;;0.00;0.00;;;16.00;67.30;;;;;;5026691;28;20045;-65
2022/06/02 10:52:23;;;;;;;0.00;0.00;;;15.90;66.10;;;;;;5030758;28;20044;-65
2022/06/02 10:55:17;;;;;;;0.00;0.00;;;16.00;66.60;;;;;;5025367;28;20046;-65
2022/06/02 10:58:20;;;;;;;0.00;0.00;;;15.90;65.90;;;;;;5020708;28;20081;-66
2022/06/02 11:00:54;;;;;;;0.00;0.00;;;16.00;66.40;;;;;;5031508;28;20041;-65
2022/06/02 11:03:45;;;;;;;0.00;0.00;;;16.00;66.80;;;;;;5027771;28;20065;-66
2022/06/02 11:06:58;;;;;;;0.43;0.43;;;15.90;66.90;;;;;;5029719;28;20457;-66
2022/06/02 11:09:48;;;;;;;0.00;0.00;;;15.90;67.20;;;;;;5012784;28;20064;-65
2022/06/02 11:12:38;;;;;;;0.00;0.00;;;15.80;67.20;;;;;;5031139;28;20411;-66
2022/06/02 11:15:15;;;;;;;0.00;0.00;;;16.00;67.20;;;;;;5030573;28;20048;-66
2022/06/02 11:17:59;;;;;;;0.00;0.00;;;16.00;66.20;;;;;;5031053;28;20096;-65
2022/06/02 11:20:46;;;;;;;0.00;0.00;;;16.10;66.00;;;;;;5020605;28;20053;-66
2022/06/02 11:23:35;;;;;;;0.03;0.03;;;16.30;66.10;;;;;;5019876;28;20624;-66
2022/06/02 11:26:22;;;;;;;0.00;0.00;;;16.60;66.20;;;;;;5031217;28;20037;-66
2022/06/02 11:28:56;;;;;;;0.00;0.00;;;16.70;63.90;;;;;;5022142;28;20078;-66
2022/06/02 11:31:40;;;;;;;0.10;0.10;;;16.90;64.30;;;;;;5015177;28;20506;-70
2022/06/02 11:34:26;;;;;;;0.00;0.00;;;16.80;63.40;;;;;;5022422;28;20132;-66
2022/06/02 11:37:21;;;;;;;0.00;0.00;;;16.60;64.20;;;;;;5029281;28;20421;-66
2022/06/02 11:39:55;;;;;;;0.10;0.10;;;16.30;64.20;;;;;;5029810;28;20080;-65
2022/06/02 11:42:44;;;;;;;0.05;0.05;;;16.30;65.00;;;;;;5014599;28;20084;-66
2022/06/02 11:45:32;;;;;;;0.00;0.00;;;16.20;64.70;;;;;;5010950;28;20085;-66
2022/06/02 11:48:10;;;;;;;0.00;0.00;;;16.30;65.50;;;;;;5026236;28;20498;-66
2022/06/02 11:50:48;;;;;;;0.00;0.00;;;16.30;65.90;;;;;;5029825;28;20045;-66
2022/06/02 11:53:36;;;;;;;0.00;0.00;;;16.10;63.60;;;;;;5030775;28;20706;-66
2022/06/02 11:56:22;;;;;;;0.00;0.00;;;16.10;64.20;;;;;;5028918;28;20052;-66
2022/06/02 11:59:07;;;;;;;0.00;0.00;;;16.20;64.80;;;;;;5030179;28;20458;-66
2022/06/02 12:02:20;;;;;;;0.00;0.00;;;16.30;64.90;;;;;;5044347;28;20052;-67
2022/06/02 12:05:06;;;;;;;0.00;0.00;;;16.30;64.60;;;;;;5028885;28;20045;-67
2022/06/02 12:07:55;;;;;;;0.00;0.00;;;16.40;63.40;;;;;;5036871;28;20529;-67
2022/06/02 12:10:58;;;;;;;0.00;0.00;;;16.30;64.00;;;;;;5029823;28;20099;-67
2022/06/02 12:13:39;;;;;;;0.00;0.00;;;16.40;65.30;;;;;;5024384;28;20052;-68
2022/06/02 12:16:30;;;;;;;0.00;0.00;;;16.50;64.10;;;;;;5029964;28;20100;-67
2022/06/02 12:19:14;;;;;;;0.00;0.00;;;16.60;64.20;;;;;;5022691;28;20045;-67
2022/06/02 12:22:11;;;;;;;0.00;0.00;;;16.60;63.90;;;;;;5030347;28;20585;-67
2022/06/02 12:24:57;;;;;;;0.00;0.00;;;16.80;65.00;;;;;;5022934;28;20406;-67
2022/06/02 12:27:47;;;;;;;0.00;0.00;;;17.00;63.40;;;;;;5026571;28;20060;-67
2022/06/02 12:30:23;;;;;;;0.00;0.00;;;17.10;61.90;;;;;;5024908;28;20978;-67
2022/06/02 12:33:16;;;;;;;0.00;0.00;;;17.30;61.40;;;;;;5027806;28;20057;-68
2022/06/02 12:35:59;;;;;;;0.00;0.00;;;17.60;62.10;;;;;;5024676;28;20061;-67
2022/06/02 12:38:38;;;;;;;0.00;0.00;;;17.80;60.60;;;;;;5029464;28;20132;-67
2022/06/02 12:41:23;;;;;;;0.03;0.03;;;17.90;58.30;;;;;;5029057;28;20084;-68
2022/06/02 12:44:15;;;;;;;0.00;0.00;;;18.10;59.40;;;;;;5029461;28;20185;-67
2022/06/02 12:46:49;;;;;;;0.00;0.00;;;18.20;60.50;;;;;;5018289;28;20056;-67
2022/06/02 12:49:34;;;;;;;0.00;0.00;;;18.50;61.00;;;;;;5011484;28;20107;-67
2022/06/02 12:52:27;;;;;;;0.00;0.00;;;18.30;59.20;;;;;;5028771;28;20052;-67
2022/06/02 12:55:17;;;;;;;0.00;0.00;;;18.20;60.20;;;;;;5020026;28;20045;-67
2022/06/02 12:58:14;;;;;;;0.00;0.00;;;18.20;59.90;;;;;;5019730;28;20057;-67
2022/06/02 13:00:55;;;;;;;0.00;0.00;;;18.10;60.00;;;;;;5013957;28;20049;-67
2022/06/02 13:03:52;;;;;;;0.00;0.00;;;18.00;60.90;;;;;;5028843;28;20041;-67
2022/06/02 13:06:36;;;;;;;0.00;0.00;;;18.00;60.40;;;;;;5017534;28;20045;-68
2022/06/02 13:09:32;;;;;;;0.00;0.00;;;18.20;60.10;;;;;;5025881;28;20089;-67
2022/06/02 13:12:11;;;;;;;0.00;0.00;;;18.40;59.40;;;;;;5019745;28;20064;-67
2022/06/02 13:14:55;;;;;;;0.00;0.00;;;18.60;61.00;;;;;;5022115;28;20433;-67
2022/06/02 13:17:39;;;;;;;0.00;0.00;;;18.80;61.20;;;;;;5028480;28;20054;-67
2022/06/02 13:20:30;;;;;;;0.20;0.20;;;18.80;60.10;;;;;;5026949;28;20041;-68
2022/06/02 13:23:23;;;;;;;0.00;0.00;;;18.60;60.50;;;;;;5012596;28;20099;-67
2022/06/02 13:26:32;;;;;;;0.00;0.00;;;18.50;60.00;;;;;;5028034;28;20449;-67
2022/06/02 13:29:10;;;;;;;0.00;0.00;;;18.40;61.00;;;;;;5028864;28;20064;-68
2022/06/02 13:32:09;;;;;;;0.00;0.00;;;18.30;59.50;;;;;;5029597;28;20049;-67
2022/06/02 13:34:56;;;;;;;0.00;0.00;;;18.20;59.40;;;;;;5024361;28;20532;-67
2022/06/02 13:37:34;;;;;;;0.00;0.00;;;18.30;59.60;;;;;;5028817;28;20379;-67
2022/06/02 13:40:30;;;;;;;0.00;0.00;;;18.40;60.40;;;;;;5027344;28;20041;-67
2022/06/02 13:43:27;;;;;;;0.00;0.00;;;18.30;59.70;;;;;;5029194;28;20056;-66
2022/06/02 13:46:12;;;;;;;0.00;0.00;;;18.30;60.50;;;;;;5028665;28;20418;-66
2022/06/02 13:49:05;;;;;;;0.00;0.00;;;18.30;60.60;;;;;;5026406;28;20060;-67
2022/06/02 13:51:45;;;;;;;0.00;0.00;;;18.20;61.00;;;;;;5009668;28;20034;-67
2022/06/02 13:57:43;;;;;;;0.00;0.00;;;18.30;60.40;;;;;;5028921;28;20589;-67
2022/06/02 14:00:09;;;;;;;0.00;0.00;;;18.60;58.40;;;;;;5034603;28;20052;-67
2022/06/02 14:02:53;;;;;;;0.00;0.00;;;19.00;59.00;;;;;;5010590;28;20042;-67
2022/06/02 14:05:48;;;;;;;0.10;0.10;;;19.30;59.40;;;;;;5019781;28;20237;-66
2022/06/02 14:08:19;;;;;;;0.10;0.10;;;19.50;58.60;;;;;;5013241;28;20103;-67
2022/06/02 14:10:57;;;;;;;;;;;19.40;58.50;;;;;;5026310;28;20053;-67
2022/06/02 14:13:44;;;;;;;0.00;0.00;;;19.30;58.80;;;;;;5032890;28;19921;-67
2022/06/02 14:16:31;;;;;;;0.00;0.00;;;19.10;59.20;;;;;;5021741;28;20487;-66
2022/06/02 14:19:24;;;;;;;0.00;0.00;;;18.80;59.20;;;;;;5024725;28;20040;-66
2022/06/02 14:22:14;;;;;;;0.00;0.00;;;18.60;59.50;;;;;;5023592;28;20491;-66
2022/06/02 14:25:06;;;;;;;0.00;0.00;;;18.50;58.80;;;;;;5031163;28;20044;-66
2022/06/02 14:27:32;;;;;;;0.00;0.00;;;18.50;59.30;;;;;;5030556;28;20581;-67
2022/06/02 14:30:19;;;;;;;0.00;0.00;;;18.60;60.00;;;;;;5032176;28;20121;-65
2022/06/02 14:33:16;;;;;;;0.00;0.00;;;19.00;57.90;;;;;;5032017;28;20088;-66
2022/06/02 14:35:55;;;;;;;0.55;0.55;;;19.30;57.40;;;;;;5023734;28;20072;-66
2022/06/02 14:38:37;;;;;;;0.00;0.00;;;19.60;56.10;;;;;;5031740;28;20100;-66
2022/06/02 14:41:27;;;;;;;0.00;0.00;;;19.90;56.20;;;;;;5015905;28;20856;-67
2022/06/02 14:43:56;;;;;;;0.00;0.00;;;20.20;56.00;;;;;;5028868;28;20049;-66